Watts, Oklahoma
Current Conditions -  °F | °C
As of 2:35 AM on Monday 26 Jan 2015 (Local Time) from KSLG Reporting Station
Scattered Clouds Scattered Clouds  
Wind Chill: 29°   Ceiling: Unl
Heat Index: 34°   Visibility: 10mi
Dew Point: 23°   Wind: 6mph
Humidity: 65%   Direction: 350°N
Pressure: 30.13"   Gusts: NA
Location:  36.11°N, 94.57°W
Report Text: KSLG 260835Z AUTO 35005KT 10SM SCT021 01/M05 A3013 RMK AO1
Loading
Personal Weather Stations






























Interactive Weather Map New forecast layout! Learn more

10-Day Weather Forecast

Advertisements
Track Severe Weather on mobile